Center Rutland, Vermont
Current Conditions -  °F | °C
As of 8:35 AM on Tuesday 21 Oct 2014 (Local Time) from KRUT Reporting Station
Overcast Overcast  
Wind Chill:   Ceiling: 5500
Heat Index:   Visibility: 10mi
Dew Point:   Wind: 8mph
Humidity: 81%   Direction: 150°SSE
Pressure: 29.94"   Gusts: NA
Location:  43.6°N, 73.01°W
Report Text: KRUT 211235Z 15007KT 10SM OVC055 08/05 A2994 RMK AO1
Loading
Personal Weather Stations






























Interactive Weather Map
Tropical Storm Tracking
New forecast layout! Learn more

10-Day Weather Forecast

Advertisements
Track Severe Weather on mobile